AirNav   TITAN Aviation Fuels
 
 560 users online  

59TX Benjamin Franklin Airport
Godley, Texas, USA

GOING TO GODLEY?


FAA INFORMATION EFFECTIVE 08 SEPTEMBER 2022

Location

FAA Identifier: 59TX
Lat/Long: 32-29-14.0000N 097-29-25.0000W
32-29.233333N 097-29.416667W
32.4872222,-97.4902778
(estimated)
Elevation: 990 ft. / 302 m (estimated)
Variation: 06E (1995)
From city: 3 miles NE of GODLEY, TX
Time zone: UTC -5 (UTC -6 during Standard Time)
Zip code: 76044

Airport Operations

Airport use: Private use. Permission required prior to landing
Activation date: 02/1998
Control tower: no
ARTCC: FORT WORTH CENTER
FSS: FORT WORTH FLIGHT SERVICE STATION
Attendance: UNATNDD
Wind indicator: yes
Segmented circle: yes

Airport Communications

WX AWOS-3 at CPT (9 nm S): 119.525 (817-641-4135)
WX AWOS-3PT at FWS (10 nm NE): 120.025 (817-426-4172)
WX AWOS-3PT at GDJ (17 nm W): 118.925 (817-573-7514)

Nearby radio navigation aids

VOR radial/distance  VOR name  Freq  Var
FUZr207/28.8RANGER VORTAC115.7006E
MQPr110/29.4MILLSAP VORTAC117.7009E
TTTr219/32.3MAVERICK VOR/DME113.1006E
CVEr225/38.2COWBOY VOR/DME116.2006E

Airport Services

Runway Information

Runway 1/19

Dimensions: 3000 x 100 ft. / 914 x 30 m
Surface: turf, in fair condition
Runway edge markings: OUTLINED WITH WHITE BARRELS & WHITE PLASTIC PIPES.
RUNWAY 1  RUNWAY 19
Traffic pattern: leftleft

Airport Ownership and Management from official FAA records

Ownership: Privately-owned
Owner: BENJAMIN F MORRISON III
5621 CR 913 A
GODLEY, TX 76044
Phone 817-988-7879
Manager: BENJAMIN F MORRISON III
5621 CR 913 A
GODLEY, TX 76044
Phone 817-988-7879

Airport Operational Statistics

Aircraft based on the field: 10
Single engine airplanes: 3
Multi engine airplanes: 4
Ultralights: 3
    

Additional Remarks

FOR CD CTC REGIONAL APCH AT 972-615-2799.

Instrument Procedures

There are no published instrument procedures at 59TX.

Some nearby airports with instrument procedures:

50F - Bourland Field Airport (8 nm NW)
KCPT - Cleburne Regional Airport (9 nm S)
KFWS - Fort Worth Spinks Airport (10 nm NE)
KGDJ - Granbury Regional Airport (17 nm W)
KNFW - Fort Worth Naval Air Station JRB (Carswell Field) Airport (17 nm N)
KWEA - Parker County Airport (18 nm NW)
 
Loc | Ops | Rwys | IFR | FBO | Links
Com | Nav | Svcs | Stats | Notes

City of Fort Worth
 
Area around 59TX (Benjamin Franklin Airport)
 
Road maps at: MapQuest Bing Google
 
Aerial photo
WARNING: Photo may not be current or correct
Aerial photo of 59TX (Benjamin Franklin Airport)
Do you have a better or more recent aerial photo of Benjamin Franklin Airport that you would like to share? If so, please send us your photo.

 
Sectional chart

 
Airport distance calculator
Flying to Benjamin Franklin Airport? Find the distance to fly.

From to 59TX

Sunrise and sunset
Times for 01-Oct-2022
 Local
(UTC-5)
 Zulu
(UTC)
Morning civil twilight07:0012:00
Sunrise07:2512:25
Sunset19:1400:14
Evening civil twilight19:3900:39

Current date and time
Zulu (UTC)  02-Oct-2022 04:48:35
Local (UTC-5)  01-Oct-2022 23:48:35
 
METAR
KCPT 
9nm S 
020435Z AUTO 07005KT 10SM CLR 18/05 A3012 RMK A01
KFWS 
11nm NE 
020435Z AUTO 00000KT 10SM CLR 11/07 A3012 RMK AO2 T01110073
KGDJ 
17nm W 
AWOS-3 118.925 817-573-7514
020435Z AUTO 00000KT 10SM CLR 14/07 A3012 RMK AO2 T01420070
KNFW 
17nm N 
020352Z AUTO VRB03KT 10SM CLR A3010 RMK AO2 SLP177 TSNO $
TAF
KNFW 
17nm N 
0123/0223 VRB06KT 9999 FEW250 QNH2998INS BECMG 0204/0206 VRB06KT 9999 SKC QNH3002INS BECMG 0215/0217 09007KT 9999 SKC QNH3007INS AUTOMATED SENSOR METWATCH 0123 TIL 0211 T13/0211Z T31/0221Z FN00253
NOTAMs
Click for the latest NOTAMs
NOTAMs are issued by the DoD/FAA and will open in a separate window not controlled by AirNav.

 

 
 

Would you like to see your business listed on this page?

 If your business provides an interesting product or service to pilots, flight crews, aircraft, or users of the Benjamin Franklin Airport, you should consider listing it here.  To start the listing process, click on the button below
 
Add a business
 

Other Pages about Benjamin Franklin Airport

Update a link
 
Copyright © AirNav, LLC. All rights reserved. Privacy Policy  Contact